Home   Weather   USA   New Orleans   Past weeks
Flag for USA

Past Weather in New Orleans, Louisiana, USA — December 2016

Currently: 77 °F. Passing clouds. (Weather station: Lakefront Airport, USA). See more current weather

December 2016 Weather in New Orleans — Graph

°F

High & Low Weather Summary for December 2016

 TemperatureHumidityPressure
High79 °F (Dec 17, 12:53 pm)100% (Dec 4, 4:53 am)30.54 "Hg (Dec 4, 4:53 am)
Low37 °F (Dec 19, 2:53 am)31% (Dec 10, 1:53 pm)29.67 "Hg (Dec 5, 10:53 pm)
Average59 °F84%30.16 "Hg
* Reported Dec 1 12:53 am — Dec 31 11:43 pm, New Orleans. Weather by CustomWeather, © 2022

Note: Actual official high and low records may vary slightly from our data, if they occured in-between our weather recording intervals... More about our weather records

New Orleans Weather History for December 1, 2016

Scroll right to see more
 ConditionsComfort  
Time TempWeatherWind HumidityBarometerVisibility
12:53 am
Thu, Dec 1
59 °FClear.15 mph51%30.04 "Hg10 mi
1:53 am58 °FClear.22 mph51%30.05 "Hg10 mi
2:53 am56 °FClear.22 mph58%30.06 "Hg10 mi
3:53 am55 °FClear.21 mph59%30.06 "Hg10 mi
4:53 am55 °FClear.21 mph57%30.08 "Hg10 mi
5:53 am55 °FClear.21 mph55%30.09 "Hg10 mi
6:53 am54 °FSunny.21 mph59%30.11 "Hg10 mi
7:53 am54 °FSunny.20 mph59%30.13 "Hg10 mi
8:53 am55 °FSunny.13 mph55%30.15 "Hg10 mi
9:53 am58 °FSunny.10 mph47%30.15 "Hg10 mi
10:53 am58 °FSunny.10 mph46%30.14 "Hg10 mi
11:53 am60 °FSunny.9 mph42%30.12 "Hg10 mi
12:53 pm60 °FSunny.5 mph41%30.09 "Hg10 mi
1:53 pm60 °FSunny.3 mph42%30.09 "Hg10 mi
2:53 pm59 °FSunny.3 mph44%30.08 "Hg10 mi
3:53 pm59 °FSunny.5 mph48%30.07 "Hg10 mi
4:53 pm59 °FSunny.No wind49%30.07 "Hg10 mi
5:53 pm59 °FClear.3 mph51%30.07 "Hg10 mi
6:53 pm57 °FClear.6 mph60%30.09 "Hg10 mi
7:53 pm56 °FClear.5 mph60%30.11 "Hg10 mi
8:53 pm58 °FClear.7 mph62%30.10 "Hg10 mi
9:53 pm60 °FClear.13 mph53%30.10 "Hg10 mi
10:53 pm60 °FClear.13 mph52%30.11 "Hg10 mi
11:53 pm58 °FClear.9 mph58%30.12 "Hg9 mi
Weather by CustomWeather, © 2022

See weather overview